createdAt,value
2018-12-05T06:24:41.080Z,36.83
2018-12-05T06:35:00.039Z,27.70
2018-12-05T06:45:24.569Z,22.30
2018-12-05T06:55:44.295Z,27.53
2018-12-05T07:06:03.470Z,39.47
2018-12-05T07:16:22.721Z,19.37
2018-12-05T07:26:42.478Z,50.20
2018-12-05T07:37:01.667Z,59.63
2018-12-05T07:47:21.387Z,32.63
2018-12-05T07:57:40.546Z,34.23
2018-12-05T11:39:29.282Z,9.80
2018-12-05T11:49:47.744Z,3.83
2018-12-05T12:00:08.180Z,6.43
2018-12-05T12:10:40.630Z,5.97
2018-12-05T12:20:59.173Z,4.17
2018-12-05T12:31:20.902Z,7.23
2018-12-05T12:41:39.975Z,1.87
2018-12-05T12:52:01.494Z,10.15
2018-12-05T13:02:20.891Z,6.13
2018-12-05T13:12:40.080Z,7.93
2018-12-05T13:22:58.808Z,7.27
2018-12-05T13:33:18.341Z,6.20
2018-12-05T13:43:37.505Z,8.17
2018-12-05T13:53:56.605Z,4.83
2018-12-05T14:04:16.093Z,6.10
2018-12-05T14:14:35.527Z,8.00
2018-12-05T14:25:03.529Z,15.57
2018-12-05T14:35:34.260Z,11.53
2018-12-05T14:46:00.157Z,12.13
2018-12-05T14:56:19.001Z,11.33
2018-12-05T15:06:40.330Z,8.10
2018-12-05T15:16:58.904Z,8.37
2018-12-05T15:27:17.690Z,10.73
2018-12-05T15:37:37.094Z,19.60
2018-12-05T15:47:57.054Z,21.43
2018-12-05T15:58:16.301Z,12.87
2018-12-05T16:08:36.278Z,19.67
2018-12-05T16:18:55.476Z,6.80
2018-12-05T16:29:13.948Z,17.20
2018-12-05T16:39:34.078Z,20.97
2018-12-05T16:49:53.572Z,71.77
2018-12-05T17:00:13.462Z,47.17
2018-12-05T17:10:33.024Z,148.10
2018-12-05T17:20:52.859Z,88.97
2018-12-05T17:31:13.381Z,151.30
2018-12-05T17:41:33.315Z,173.03
2018-12-05T17:51:53.357Z,150.40
2018-12-05T18:02:12.596Z,130.67
2018-12-05T18:12:32.881Z,113.50
2018-12-05T18:22:52.374Z,57.07
2018-12-05T18:33:13.029Z,54.57
2018-12-05T18:43:32.666Z,34.40
2018-12-05T18:53:55.599Z,38.27
2018-12-05T19:04:19.146Z,43.47
2018-12-05T19:14:47.417Z,36.77
2018-12-05T19:25:09.254Z,98.30
2018-12-05T19:35:36.373Z,185.13
2018-12-05T19:46:00.355Z,42.83
2018-12-05T19:56:21.490Z,88.93
2018-12-05T20:06:41.770Z,51.50
2018-12-05T20:17:01.696Z,40.30
2018-12-05T20:27:26.120Z,51.63
2018-12-05T20:37:52.160Z,53.97
2018-12-05T20:48:13.533Z,24.80
2018-12-05T20:58:33.023Z,36.73
2018-12-05T21:08:52.671Z,104.93
2018-12-05T21:19:13.295Z,17.67
2018-12-05T21:29:33.488Z,55.37
2018-12-05T21:39:54.455Z,17.83
2018-12-05T21:50:13.689Z,15.93
2018-12-05T22:00:33.548Z,45.67
2018-12-05T22:10:53.053Z,18.33
2018-12-05T22:21:12.163Z,22.47
2018-12-05T22:31:30.736Z,25.47
2018-12-05T22:41:50.106Z,14.37
2018-12-05T22:52:09.140Z,15.17
2018-12-05T23:02:28.226Z,13.07
2018-12-05T23:12:46.809Z,24.13
2018-12-05T23:23:05.465Z,10.80
2018-12-05T23:33:23.965Z,12.10
2018-12-05T23:43:42.081Z,12.07
2018-12-05T23:54:02.270Z,14.93
